createdAt,value
2023-03-18T00:00:17.823Z,99706.22
2023-03-18T00:01:49.569Z,99717.16
2023-03-18T00:03:21.428Z,99706.44
2023-03-18T00:04:53.766Z,99706.06
2023-03-18T00:06:26.107Z,99695.78
2023-03-18T00:07:58.061Z,99710.25
2023-03-18T00:09:29.755Z,99701.47
2023-03-18T00:11:02.228Z,99694.94
2023-03-18T00:12:34.581Z,99704.03
2023-03-18T00:14:08.785Z,99710.50
2023-03-18T00:15:40.763Z,99699.88
2023-03-18T00:17:12.908Z,99698.56
2023-03-18T00:18:44.745Z,99702.34
2023-03-18T00:20:18.571Z,99703.53
2023-03-18T00:21:50.528Z,99708.06
2023-03-18T00:23:22.943Z,99709.28
2023-03-18T00:24:54.935Z,99698.91
2023-03-18T00:26:27.805Z,99703.88
2023-03-18T00:28:00.260Z,99696.59
2023-03-18T00:29:32.161Z,99698.50
2023-03-18T00:31:08.838Z,99704.63
2023-03-18T00:32:41.654Z,99718.53
2023-03-18T00:34:14.868Z,99709.75
2023-03-18T00:35:47.598Z,99711.44
2023-03-18T00:37:30.397Z,99697.78
2023-03-18T00:39:04.118Z,99686.22
2023-03-18T00:40:53.672Z,99703.78
2023-03-18T00:42:25.854Z,99707.16
2023-03-18T00:43:57.619Z,99691.22
2023-03-18T00:45:30.064Z,99699.13
2023-03-18T00:47:02.007Z,99692.22
2023-03-18T00:48:34.242Z,99700.56
2023-03-18T00:50:08.581Z,99693.97
2023-03-18T00:51:42.241Z,99699.63
2023-03-18T00:53:14.539Z,99698.88
2023-03-18T00:54:46.253Z,99687.31
2023-03-18T00:56:22.227Z,99692.03
2023-03-18T00:57:53.971Z,99682.81
2023-03-18T00:59:26.225Z,99689.84
2023-03-18T01:00:58.264Z,99685.13
2023-03-18T01:02:30.746Z,99677.00
2023-03-18T01:04:02.794Z,99676.13
2023-03-18T01:05:35.962Z,99687.19
2023-03-18T01:07:09.084Z,99667.81
2023-03-18T01:08:41.586Z,99672.44
2023-03-18T01:10:14.763Z,99680.22
2023-03-18T01:11:46.527Z,99684.13
2023-03-18T01:13:18.562Z,99689.47
2023-03-18T01:14:50.610Z,99683.72
2023-03-18T01:16:22.981Z,99691.44
2023-03-18T01:17:57.112Z,99697.50
2023-03-18T01:19:29.479Z,99687.59
2023-03-18T01:21:01.859Z,99684.25
2023-03-18T01:22:39.320Z,99674.03
2023-03-18T01:24:11.589Z,99672.19
2023-03-18T01:25:44.758Z,99677.50
2023-03-18T01:27:21.797Z,99665.81
2023-03-18T01:28:53.742Z,99680.41
2023-03-18T01:30:25.735Z,99682.88
2023-03-18T01:31:58.998Z,99679.44
2023-03-18T01:33:31.038Z,99682.88
2023-03-18T01:35:03.066Z,99682.03
2023-03-18T01:36:34.992Z,99682.03
2023-03-18T01:38:12.543Z,99686.28
2023-03-18T01:39:45.540Z,99681.16
2023-03-18T01:41:26.049Z,99684.78
2023-03-18T01:43:12.641Z,99669.84
2023-03-18T01:44:46.404Z,99677.88
2023-03-18T01:46:24.420Z,99669.84
2023-03-18T01:47:58.329Z,99662.97
2023-03-18T01:49:41.149Z,99671.25
2023-03-18T01:51:13.753Z,99668.06
2023-03-18T01:52:47.383Z,99675.25
2023-03-18T01:54:19.562Z,99669.91
2023-03-18T01:55:52.297Z,99674.81
2023-03-18T01:57:25.104Z,99681.69
2023-03-18T01:58:59.708Z,99681.78
2023-03-18T02:00:32.736Z,99684.63
2023-03-18T02:02:07.527Z,99689.03
2023-03-18T02:03:42.989Z,99693.53
2023-03-18T02:05:19.069Z,99685.72
2023-03-18T02:06:51.061Z,99700.91
2023-03-18T02:08:23.499Z,99697.69
2023-03-18T02:09:58.816Z,99701.44
2023-03-18T02:11:34.547Z,99696.22
2023-03-18T02:13:10.760Z,99691.81
2023-03-18T02:14:44.565Z,99700.91
2023-03-18T02:16:25.830Z,99699.13
2023-03-18T02:18:07.708Z,99697.75
2023-03-18T02:20:10.586Z,99709.44
2023-03-18T02:21:54.835Z,99704.63
2023-03-18T02:23:42.510Z,99700.13
2023-03-18T02:25:47.766Z,99709.97
2023-03-18T02:27:24.321Z,99709.13
2023-03-18T02:29:01.450Z,99717.03
2023-03-18T02:30:40.198Z,99719.06
2023-03-18T02:32:14.193Z,99710.81
2023-03-18T02:33:47.132Z,99715.22
2023-03-18T02:35:19.113Z,99720.91
2023-03-18T02:36:51.452Z,99721.03
2023-03-18T02:38:23.502Z,99724.56
2023-03-18T02:39:55.549Z,99719.41
2023-03-18T02:41:33.253Z,99724.78
2023-03-18T02:43:26.290Z,99727.66
2023-03-18T02:45:22.300Z,99723.38
2023-03-18T02:47:14.274Z,99729.50
2023-03-18T02:48:47.111Z,99726.28
2023-03-18T02:50:18.891Z,99722.97
2023-03-18T02:51:51.730Z,99726.19
2023-03-18T02:53:23.504Z,99721.06
2023-03-18T02:54:59.293Z,99718.81
2023-03-18T02:56:32.623Z,99726.50
2023-03-18T02:58:04.494Z,99718.59
2023-03-18T02:59:36.965Z,99730.50
2023-03-18T03:01:10.008Z,99725.88
2023-03-18T03:02:42.288Z,99725.78
2023-03-18T03:04:15.725Z,99740.00
2023-03-18T03:05:47.866Z,99746.34
2023-03-18T03:07:19.621Z,99743.66
2023-03-18T03:08:56.285Z,99735.72
2023-03-18T03:10:30.894Z,99736.78
2023-03-18T03:12:03.168Z,99739.16
2023-03-18T03:13:36.228Z,99731.22
2023-03-18T03:15:08.934Z,99739.25
2023-03-18T03:16:45.165Z,99735.31
2023-03-18T03:18:17.460Z,99727.41
2023-03-18T03:19:49.519Z,99742.38
2023-03-18T03:21:21.428Z,99735.84
2023-03-18T03:22:53.538Z,99741.19
2023-03-18T03:24:25.918Z,99744.09
2023-03-18T03:25:58.012Z,99741.50
2023-03-18T03:27:32.043Z,99747.00
2023-03-18T03:29:06.880Z,99745.38
2023-03-18T03:30:39.954Z,99751.59
2023-03-18T03:32:13.247Z,99749.66
2023-03-18T03:33:45.393Z,99747.72
2023-03-18T03:35:19.521Z,99752.13
2023-03-18T03:36:51.267Z,99753.06
2023-03-18T03:38:23.199Z,99750.38
2023-03-18T03:39:55.166Z,99749.03
2023-03-18T03:41:28.394Z,99756.84
2023-03-18T03:43:00.241Z,99758.63
2023-03-18T03:44:32.038Z,99755.75
2023-03-18T03:46:07.703Z,99762.19
2023-03-18T03:47:40.974Z,99761.22
2023-03-18T03:49:12.711Z,99761.31
2023-03-18T03:50:45.521Z,99762.28
2023-03-18T03:52:19.954Z,99765.94
2023-03-18T03:53:52.929Z,99764.09
2023-03-18T03:55:24.966Z,99763.47
2023-03-18T03:56:59.642Z,99765.09
2023-03-18T03:58:32.012Z,99761.66
2023-03-18T04:00:12.418Z,99772.56
2023-03-18T04:01:47.862Z,99776.00
2023-03-18T04:03:19.817Z,99777.91
2023-03-18T04:04:51.795Z,99769.78
2023-03-18T04:06:31.359Z,99786.69
2023-03-18T04:08:06.690Z,99781.56
2023-03-18T04:09:42.738Z,99789.47
2023-03-18T04:11:14.526Z,99800.28
2023-03-18T04:12:47.482Z,99794.19
2023-03-18T04:14:19.651Z,99799.44
2023-03-18T04:15:52.134Z,99788.75
2023-03-18T04:17:24.764Z,99795.44
2023-03-18T04:18:56.661Z,99793.75
2023-03-18T04:20:29.275Z,99787.63
2023-03-18T04:22:01.287Z,99787.97
2023-03-18T04:23:34.034Z,99796.13
2023-03-18T04:25:06.524Z,99789.59
2023-03-18T04:26:38.344Z,99788.59
2023-03-18T04:28:10.416Z,99788.59
2023-03-18T04:29:42.319Z,99786.78
2023-03-18T04:31:14.900Z,99787.75
2023-03-18T04:32:46.824Z,99788.59
2023-03-18T04:34:18.757Z,99788.38
2023-03-18T04:35:51.052Z,99785.41
2023-03-18T04:37:24.028Z,99789.16
2023-03-18T04:39:00.400Z,99791.19
2023-03-18T04:40:33.130Z,99802.53
2023-03-18T04:42:05.811Z,99792.03
2023-03-18T04:43:37.606Z,99801.03
2023-03-18T04:45:10.435Z,99792.44
2023-03-18T04:46:42.594Z,99798.56
2023-03-18T04:48:14.710Z,99798.44
2023-03-18T04:49:47.321Z,99798.66
2023-03-18T04:51:20.797Z,99798.97
2023-03-18T04:52:52.789Z,99803.56
2023-03-18T04:54:29.272Z,99807.00
2023-03-18T04:56:05.304Z,99802.81
2023-03-18T04:57:46.503Z,99800.16
2023-03-18T04:59:21.236Z,99803.56
2023-03-18T05:00:54.017Z,99803.75
2023-03-18T05:02:31.365Z,99807.19
2023-03-18T05:04:03.449Z,99804.81
2023-03-18T05:05:45.187Z,99802.34
2023-03-18T05:07:19.164Z,99811.25
2023-03-18T05:09:01.552Z,99817.44
2023-03-18T05:10:37.549Z,99814.41
2023-03-18T05:12:13.519Z,99811.63
2023-03-18T05:13:45.690Z,99803.81
2023-03-18T05:15:19.569Z,99810.09
2023-03-18T05:16:57.810Z,99815.88
2023-03-18T05:18:30.537Z,99809.56
2023-03-18T05:20:06.549Z,99813.00
2023-03-18T05:21:38.598Z,99816.53
2023-03-18T05:23:10.600Z,99821.03
2023-03-18T05:24:50.989Z,99804.03
2023-03-18T05:26:24.846Z,99805.84
2023-03-18T05:27:57.879Z,99805.00
2023-03-18T05:29:41.204Z,99810.34
2023-03-18T05:31:23.236Z,99811.47
2023-03-18T05:32:55.282Z,99813.94
2023-03-18T05:34:41.525Z,99815.69
2023-03-18T05:36:14.770Z,99827.50
2023-03-18T05:37:59.533Z,99817.59
2023-03-18T05:39:32.485Z,99813.22
2023-03-18T05:41:05.213Z,99812.25
2023-03-18T05:42:57.135Z,99818.00
2023-03-18T05:44:38.997Z,99819.69
2023-03-18T05:46:11.931Z,99827.50
2023-03-18T05:48:07.232Z,99828.47
2023-03-18T05:49:46.583Z,99822.09
2023-03-18T05:51:23.059Z,99826.13
2023-03-18T05:52:54.797Z,99819.75
2023-03-18T05:54:29.093Z,99826.91
2023-03-18T05:56:01.241Z,99821.31
2023-03-18T05:57:34.385Z,99825.00
2023-03-18T05:59:10.200Z,99829.38
2023-03-18T06:00:52.102Z,99828.53
2023-03-18T06:02:25.152Z,99834.72
2023-03-18T06:03:57.234Z,99829.03
2023-03-18T06:05:30.041Z,99835.69
2023-03-18T06:07:03.287Z,99841.72
2023-03-18T06:08:36.074Z,99846.53
2023-03-18T06:10:08.751Z,99835.63
2023-03-18T06:11:40.933Z,99841.38
2023-03-18T06:13:13.281Z,99842.47
2023-03-18T06:14:45.713Z,99839.59
2023-03-18T06:16:17.525Z,99835.88
2023-03-18T06:17:49.596Z,99835.13
2023-03-18T06:19:22.131Z,99832.00
2023-03-18T06:20:54.094Z,99851.28
2023-03-18T06:22:26.444Z,99844.13
2023-03-18T06:23:58.816Z,99845.09
2023-03-18T06:25:32.023Z,99837.59
2023-03-18T06:27:04.127Z,99847.88
2023-03-18T06:28:36.012Z,99836.66
2023-03-18T06:30:13.656Z,99830.13
2023-03-18T06:31:46.216Z,99846.47
2023-03-18T06:33:26.613Z,99841.38
2023-03-18T06:34:58.446Z,99848.84
2023-03-18T06:36:30.921Z,99853.16
2023-03-18T06:38:03.429Z,99849.81
2023-03-18T06:39:40.124Z,99851.09
2023-03-18T06:41:14.435Z,99839.75
2023-03-18T06:42:57.825Z,99841.91
2023-03-18T06:44:42.910Z,99845.97
2023-03-18T06:46:21.430Z,99856.88
2023-03-18T06:47:53.781Z,99847.25
2023-03-18T06:49:25.648Z,99854.22
2023-03-18T06:51:04.926Z,99845.34
2023-03-18T06:52:40.702Z,99847.03
2023-03-18T06:54:18.779Z,99844.03
2023-03-18T06:55:50.813Z,99848.94
2023-03-18T06:57:27.264Z,99841.47
2023-03-18T06:58:59.832Z,99848.53
2023-03-18T07:00:34.249Z,99846.59
2023-03-18T07:02:06.323Z,99842.72
2023-03-18T07:03:39.098Z,99849.25
2023-03-18T07:05:12.922Z,99855.97
2023-03-18T07:06:45.783Z,99860.03
2023-03-18T07:08:17.770Z,99864.41
2023-03-18T07:09:49.518Z,99862.69
2023-03-18T07:11:22.153Z,99863.53
2023-03-18T07:12:55.229Z,99865.03
2023-03-18T07:14:28.576Z,99869.00
2023-03-18T07:16:00.869Z,99854.72
2023-03-18T07:17:32.845Z,99866.09
2023-03-18T07:19:04.567Z,99874.97
2023-03-18T07:20:37.001Z,99862.31
2023-03-18T07:22:08.806Z,99864.53
2023-03-18T07:23:41.173Z,99860.78
2023-03-18T07:25:13.509Z,99855.06
2023-03-18T07:26:45.567Z,99853.13
2023-03-18T07:28:17.415Z,99856.81
2023-03-18T07:29:50.817Z,99851.94
2023-03-18T07:31:23.071Z,99844.88
2023-03-18T07:32:55.768Z,99855.38
2023-03-18T07:34:28.301Z,99856.38
2023-03-18T07:36:00.489Z,99858.38
2023-03-18T07:37:33.582Z,99856.31
2023-03-18T07:39:07.014Z,99853.66
2023-03-18T07:40:38.767Z,99855.84
2023-03-18T07:42:11.610Z,99858.81
2023-03-18T07:43:50.306Z,99863.69
2023-03-18T07:45:22.114Z,99864.84
2023-03-18T07:46:54.225Z,99862.63
2023-03-18T07:48:26.490Z,99864.47
2023-03-18T07:49:59.391Z,99860.59
2023-03-18T07:51:31.164Z,99864.00
2023-03-18T07:53:03.560Z,99862.91
2023-03-18T07:54:35.711Z,99867.09
2023-03-18T07:56:08.557Z,99856.59
2023-03-18T07:57:41.104Z,99850.75
2023-03-18T07:59:13.508Z,99857.84
2023-03-18T08:00:45.610Z,99862.22
2023-03-18T08:02:17.376Z,99862.72
2023-03-18T08:03:49.187Z,99858.09
2023-03-18T08:05:22.184Z,99869.31
2023-03-18T08:06:55.328Z,99863.19
2023-03-18T08:08:27.069Z,99857.84
2023-03-18T08:09:59.662Z,99865.34
2023-03-18T08:11:33.304Z,99858.88
2023-03-18T08:13:05.055Z,99866.19
2023-03-18T08:14:37.401Z,99866.41
2023-03-18T08:16:09.217Z,99877.06
2023-03-18T08:17:41.573Z,99871.31
2023-03-18T08:19:13.296Z,99867.88
2023-03-18T08:20:46.158Z,99861.53
2023-03-18T08:22:18.210Z,99865.22
2023-03-18T08:23:49.895Z,99862.00
2023-03-18T08:25:23.151Z,99869.09
2023-03-18T08:26:56.159Z,99863.22
2023-03-18T08:28:28.121Z,99867.22
2023-03-18T08:30:03.051Z,99864.28
2023-03-18T08:31:35.432Z,99875.53
2023-03-18T08:33:07.740Z,99876.38
2023-03-18T08:34:39.448Z,99885.88
2023-03-18T08:36:12.213Z,99882.09
2023-03-18T08:37:43.940Z,99882.88
2023-03-18T08:39:16.087Z,99877.72
2023-03-18T08:40:48.410Z,99874.06
2023-03-18T08:42:20.640Z,99879.66
2023-03-18T08:43:53.330Z,99879.53
2023-03-18T08:45:27.311Z,99883.44
2023-03-18T08:46:59.356Z,99881.91
2023-03-18T08:48:31.105Z,99880.81
2023-03-18T08:50:03.147Z,99886.41
2023-03-18T08:51:34.793Z,99882.53
2023-03-18T08:53:06.466Z,99886.41
2023-03-18T08:54:38.280Z,99885.63
2023-03-18T08:56:10.087Z,99883.59
2023-03-18T08:57:43.332Z,99885.75
2023-03-18T08:59:15.002Z,99886.94
2023-03-18T09:00:47.081Z,99880.59
2023-03-18T09:02:18.811Z,99882.19
2023-03-18T09:03:50.947Z,99882.34
2023-03-18T09:05:22.941Z,99885.94
2023-03-18T09:06:54.862Z,99875.50
2023-03-18T09:08:26.576Z,99883.47
2023-03-18T09:09:58.255Z,99883.28
2023-03-18T09:11:29.937Z,99883.00
2023-03-18T09:13:01.878Z,99882.19
2023-03-18T09:14:36.122Z,99878.50
2023-03-18T09:16:10.798Z,99883.06
2023-03-18T09:17:59.951Z,99878.81
2023-03-18T09:19:35.321Z,99884.25
2023-03-18T09:21:07.605Z,99875.59
2023-03-18T09:22:41.717Z,99881.69
2023-03-18T09:24:13.429Z,99879.72
2023-03-18T09:25:48.381Z,99881.69
2023-03-18T09:27:20.122Z,99880.84
2023-03-18T09:28:52.101Z,99885.00
2023-03-18T09:30:25.757Z,99888.66
2023-03-18T09:31:58.432Z,99880.84
2023-03-18T09:33:30.147Z,99875.41
2023-03-18T09:35:01.986Z,99885.06
2023-03-18T09:36:33.847Z,99886.72
2023-03-18T09:38:06.780Z,99884.00
2023-03-18T09:39:38.519Z,99881.13
2023-03-18T09:41:10.169Z,99876.94
2023-03-18T09:42:56.660Z,99875.47
2023-03-18T09:44:36.897Z,99872.31
2023-03-18T09:46:37.638Z,99868.38
2023-03-18T09:48:34.873Z,99869.72
2023-03-18T09:50:21.794Z,99869.13
2023-03-18T09:52:01.288Z,99875.44
2023-03-18T09:53:45.116Z,99876.44
2023-03-18T09:55:35.816Z,99876.53
2023-03-18T09:57:23.217Z,99879.16
2023-03-18T09:59:05.729Z,99885.13
2023-03-18T10:00:38.805Z,99879.66
2023-03-18T10:02:31.056Z,99870.91
2023-03-18T10:04:21.774Z,99878.63
2023-03-18T10:06:20.610Z,99877.16
2023-03-18T10:07:57.596Z,99882.22
2023-03-18T10:09:36.215Z,99885.31
2023-03-18T10:11:16.740Z,99888.41
2023-03-18T10:12:53.062Z,99884.69
2023-03-18T10:14:42.494Z,99895.16
2023-03-18T10:16:23.767Z,99887.22
2023-03-18T10:18:03.162Z,99884.72
2023-03-18T10:19:37.752Z,99887.69
2023-03-18T10:21:35.327Z,99881.38
2023-03-18T10:23:21.603Z,99880.09
2023-03-18T10:25:21.181Z,99884.88
2023-03-18T10:27:08.958Z,99879.16
2023-03-18T10:29:12.201Z,99880.38
2023-03-18T10:31:01.767Z,99885.06
2023-03-18T10:32:54.850Z,99877.59
2023-03-18T10:34:57.400Z,99876.09
2023-03-18T10:36:44.121Z,99888.22
2023-03-18T10:38:28.139Z,99882.81
2023-03-18T10:39:59.875Z,99882.81
2023-03-18T10:41:37.566Z,99877.38
2023-03-18T10:43:17.315Z,99889.44
2023-03-18T10:44:51.514Z,99890.16
2023-03-18T10:46:25.761Z,99878.78
2023-03-18T10:48:24.649Z,99876.06
2023-03-18T10:50:12.084Z,99873.00
2023-03-18T10:51:52.571Z,99891.03
2023-03-18T10:53:34.668Z,99883.53
2023-03-18T10:55:16.324Z,99890.69
2023-03-18T10:56:48.900Z,99887.47
2023-03-18T10:58:20.700Z,99896.63
2023-03-18T10:59:52.684Z,99893.06
2023-03-18T11:01:28.935Z,99883.91
2023-03-18T11:03:02.192Z,99884.59
2023-03-18T11:04:45.986Z,99885.94
2023-03-18T11:06:35.657Z,99886.78
2023-03-18T11:08:28.870Z,99888.50
2023-03-18T11:10:25.131Z,99887.97
2023-03-18T11:11:58.454Z,99893.63
2023-03-18T11:13:30.152Z,99895.50
2023-03-18T11:15:10.456Z,99899.59
2023-03-18T11:16:50.166Z,99894.84
2023-03-18T11:18:24.787Z,99893.81
2023-03-18T11:20:17.080Z,99891.44
2023-03-18T11:21:49.615Z,99884.63
2023-03-18T11:23:56.226Z,99887.19
2023-03-18T11:25:30.255Z,99882.56
2023-03-18T11:27:03.278Z,99873.06
2023-03-18T11:28:41.944Z,99887.84
2023-03-18T11:30:38.618Z,99887.34
2023-03-18T11:32:34.225Z,99885.63
2023-03-18T11:34:08.983Z,99887.00
2023-03-18T11:35:53.412Z,99890.06
2023-03-18T11:37:37.399Z,99893.94
2023-03-18T11:39:15.144Z,99891.41
2023-03-18T11:40:47.360Z,99889.19
2023-03-18T11:42:22.219Z,99890.91
2023-03-18T11:44:07.197Z,99892.78
2023-03-18T11:45:43.275Z,99884.75
2023-03-18T11:47:23.065Z,99882.41
2023-03-18T11:48:54.897Z,99884.28
2023-03-18T11:50:39.526Z,99880.72
2023-03-18T11:52:32.376Z,99878.66
2023-03-18T11:54:28.506Z,99882.72
2023-03-18T11:56:27.486Z,99880.88
2023-03-18T11:57:59.136Z,99878.16
2023-03-18T11:59:58.757Z,99875.44
2023-03-18T12:01:35.819Z,99879.00
2023-03-18T12:03:29.900Z,99875.94
2023-03-18T12:05:31.654Z,99881.06
2023-03-18T12:07:32.827Z,99877.28
2023-03-18T12:09:19.507Z,99871.88
2023-03-18T12:11:16.371Z,99866.78
2023-03-18T12:12:54.891Z,99877.47
2023-03-18T12:14:39.660Z,99877.47
2023-03-18T12:16:48.916Z,99871.41
2023-03-18T12:18:43.962Z,99878.16
2023-03-18T12:20:50.132Z,99871.72
2023-03-18T12:22:39.921Z,99873.75
2023-03-18T12:24:30.446Z,99869.00
2023-03-18T12:26:07.002Z,99872.56
2023-03-18T12:27:48.414Z,99869.50
2023-03-18T12:29:45.966Z,99858.97
2023-03-18T12:31:40.861Z,99868.31
2023-03-18T12:33:34.220Z,99872.38
2023-03-18T12:35:21.729Z,99864.91
2023-03-18T12:37:14.130Z,99873.06
2023-03-18T12:39:04.238Z,99868.97
2023-03-18T12:40:55.966Z,99871.19
2023-03-18T12:42:44.784Z,99870.38
2023-03-18T12:44:30.169Z,99865.25
2023-03-18T12:46:18.262Z,99871.69
2023-03-18T12:47:55.197Z,99872.38
2023-03-18T12:49:34.902Z,99872.03
2023-03-18T12:51:13.048Z,99866.59
2023-03-18T12:52:51.073Z,99864.72
2023-03-18T12:54:31.003Z,99870.31
2023-03-18T12:56:10.044Z,99866.22
2023-03-18T12:57:55.192Z,99865.56
2023-03-18T12:59:35.496Z,99867.59
2023-03-18T13:01:18.406Z,99863.84
2023-03-18T13:03:23.564Z,99867.59
2023-03-18T13:05:01.801Z,99864.88
2023-03-18T13:06:44.597Z,99858.56
2023-03-18T13:08:41.783Z,99861.31
2023-03-18T13:10:24.482Z,99860.13
2023-03-18T13:12:14.650Z,99861.13
2023-03-18T13:13:51.644Z,99862.84
2023-03-18T13:15:41.696Z,99857.25
2023-03-18T13:17:40.227Z,99858.41
2023-03-18T13:19:12.438Z,99855.88
2023-03-18T13:20:46.259Z,99864.22
2023-03-18T13:22:32.987Z,99857.47
2023-03-18T13:24:23.949Z,99863.56
2023-03-18T13:26:07.554Z,99851.00
2023-03-18T13:27:52.942Z,99855.09
2023-03-18T13:29:40.245Z,99849.16
2023-03-18T13:31:27.291Z,99839.81
2023-03-18T13:33:21.795Z,99843.22
2023-03-18T13:35:06.405Z,99853.38
2023-03-18T13:36:56.739Z,99839.97
2023-03-18T13:38:56.469Z,99847.44
2023-03-18T13:40:43.387Z,99845.22
2023-03-18T13:42:18.616Z,99847.94
2023-03-18T13:43:51.968Z,99848.63
2023-03-18T13:45:28.915Z,99841.28
2023-03-18T13:47:08.330Z,99844.84
2023-03-18T13:48:40.878Z,99839.25
2023-03-18T13:50:18.296Z,99836.69
2023-03-18T13:51:55.558Z,99838.72
2023-03-18T13:53:34.024Z,99844.97
2023-03-18T13:55:27.681Z,99846.00
2023-03-18T13:57:16.130Z,99842.09
2023-03-18T13:58:48.419Z,99838.31
2023-03-18T14:00:28.278Z,99836.09
2023-03-18T14:02:31.260Z,99827.59
2023-03-18T14:04:31.149Z,99824.50
2023-03-18T14:06:08.970Z,99825.69
2023-03-18T14:07:47.973Z,99836.34
2023-03-18T14:09:25.737Z,99818.63
2023-03-18T14:11:15.452Z,99819.13
2023-03-18T14:12:48.416Z,99819.25
2023-03-18T14:14:54.485Z,99814.41
2023-03-18T14:16:48.284Z,99827.25
2023-03-18T14:18:27.242Z,99819.03
2023-03-18T14:20:17.286Z,99817.72
2023-03-18T14:21:54.990Z,99814.13
2023-03-18T14:23:38.775Z,99817.69
2023-03-18T14:25:13.576Z,99814.22
2023-03-18T14:27:08.430Z,99815.25
2023-03-18T14:29:06.055Z,99806.34
2023-03-18T14:30:37.749Z,99813.16
2023-03-18T14:32:34.504Z,99810.63
2023-03-18T14:34:18.884Z,99826.91
2023-03-18T14:35:58.771Z,99817.38
2023-03-18T14:37:33.071Z,99823.28
2023-03-18T14:39:07.564Z,99812.03
2023-03-18T14:40:46.212Z,99815.59
2023-03-18T14:42:31.622Z,99806.88
2023-03-18T14:44:17.353Z,99814.31
2023-03-18T14:45:53.597Z,99810.88
2023-03-18T14:47:39.937Z,99807.41
2023-03-18T14:49:34.116Z,99803.72
2023-03-18T14:51:17.738Z,99807.09
2023-03-18T14:53:06.748Z,99809.09
2023-03-18T14:54:43.715Z,99812.75
2023-03-18T14:56:29.050Z,99811.59
2023-03-18T14:58:01.566Z,99804.75
2023-03-18T14:59:33.363Z,99805.78
2023-03-18T15:01:09.787Z,99805.19
2023-03-18T15:02:42.279Z,99804.22
2023-03-18T15:04:22.059Z,99804.09
2023-03-18T15:06:21.890Z,99805.31
2023-03-18T15:07:54.070Z,99807.72
2023-03-18T15:09:28.425Z,99802.06
2023-03-18T15:11:05.884Z,99808.84
2023-03-18T15:12:38.047Z,99816.06
2023-03-18T15:14:19.316Z,99811.66
2023-03-18T15:15:56.469Z,99810.41
2023-03-18T15:17:28.269Z,99813.50
2023-03-18T15:19:00.398Z,99816.06
2023-03-18T15:20:36.391Z,99818.81
2023-03-18T15:22:10.821Z,99814.91
2023-03-18T15:24:00.253Z,99820.38
2023-03-18T15:25:32.429Z,99820.72
2023-03-18T15:27:05.735Z,99819.72
2023-03-18T15:28:37.512Z,99821.44
2023-03-18T15:30:33.972Z,99822.81
2023-03-18T15:32:26.544Z,99821.28
2023-03-18T15:34:17.427Z,99826.53
2023-03-18T15:36:06.083Z,99826.03
2023-03-18T15:37:42.865Z,99824.34
2023-03-18T15:39:27.748Z,99830.31
2023-03-18T15:41:12.181Z,99831.66
2023-03-18T15:42:45.624Z,99833.38
2023-03-18T15:44:24.709Z,99821.09
2023-03-18T15:46:00.000Z,99823.97
2023-03-18T15:47:32.753Z,99824.50
2023-03-18T15:49:05.667Z,99823.31
2023-03-18T15:50:37.459Z,99823.47
2023-03-18T15:52:09.199Z,99828.91
2023-03-18T15:53:44.639Z,99826.81
2023-03-18T15:55:29.234Z,99826.63
2023-03-18T15:57:11.798Z,99820.50
2023-03-18T15:58:45.163Z,99833.19
2023-03-18T16:00:17.342Z,99831.47
2023-03-18T16:01:49.244Z,99830.75
2023-03-18T16:03:24.874Z,99830.00
2023-03-18T16:05:20.681Z,99831.94
2023-03-18T16:06:55.249Z,99836.69
2023-03-18T16:08:27.017Z,99838.66
2023-03-18T16:09:58.773Z,99832.16
2023-03-18T16:11:32.609Z,99828.91
2023-03-18T16:13:04.875Z,99834.16
2023-03-18T16:14:43.197Z,99827.69
2023-03-18T16:16:24.946Z,99835.47
2023-03-18T16:17:57.889Z,99838.66
2023-03-18T16:19:29.834Z,99839.03
2023-03-18T16:21:02.688Z,99833.44
2023-03-18T16:22:35.309Z,99844.78
2023-03-18T16:24:07.193Z,99840.69
2023-03-18T16:25:39.240Z,99847.25
2023-03-18T16:27:29.434Z,99845.50
2023-03-18T16:29:01.828Z,99838.59
2023-03-18T16:30:35.199Z,99851.13
2023-03-18T16:32:11.707Z,99847.91
2023-03-18T16:33:46.330Z,99850.25
2023-03-18T16:35:24.684Z,99849.84
2023-03-18T16:36:57.195Z,99845.75
2023-03-18T16:38:30.144Z,99857.19
2023-03-18T16:40:01.884Z,99860.53
2023-03-18T16:41:34.031Z,99865.84
2023-03-18T16:43:15.467Z,99858.16
2023-03-18T16:44:47.076Z,99862.63
2023-03-18T16:46:19.317Z,99866.94
2023-03-18T16:47:54.107Z,99869.25
2023-03-18T16:49:31.057Z,99871.06
2023-03-18T16:51:04.693Z,99874.78
2023-03-18T16:52:36.398Z,99874.53
2023-03-18T16:54:32.592Z,99876.88
2023-03-18T16:56:17.205Z,99877.38
2023-03-18T16:57:54.460Z,99874.53
2023-03-18T16:59:34.451Z,99880.09
2023-03-18T17:01:07.600Z,99883.81
2023-03-18T17:02:40.651Z,99874.34
2023-03-18T17:04:26.784Z,99878.47
2023-03-18T17:05:58.588Z,99886.72
2023-03-18T17:07:30.685Z,99878.50
2023-03-18T17:09:02.429Z,99877.13
2023-03-18T17:10:34.427Z,99881.56
2023-03-18T17:12:07.578Z,99880.16
2023-03-18T17:13:39.592Z,99875.44
2023-03-18T17:15:14.794Z,99880.00
2023-03-18T17:16:47.130Z,99880.84
2023-03-18T17:18:21.873Z,99884.81
2023-03-18T17:19:54.446Z,99878.41
2023-03-18T17:21:28.704Z,99881.00
2023-03-18T17:23:00.956Z,99883.69
2023-03-18T17:24:32.690Z,99887.09
2023-03-18T17:26:05.733Z,99879.56
2023-03-18T17:27:56.658Z,99889.34
2023-03-18T17:29:30.402Z,99895.28
2023-03-18T17:31:03.146Z,99891.88
2023-03-18T17:32:35.992Z,99901.94
2023-03-18T17:34:13.733Z,99910.56
2023-03-18T17:35:45.580Z,99910.69
2023-03-18T17:37:18.015Z,99911.13
2023-03-18T17:38:54.460Z,99915.94
2023-03-18T17:40:29.171Z,99909.22
2023-03-18T17:42:02.195Z,99912.69
2023-03-18T17:43:35.978Z,99916.94
2023-03-18T17:45:29.659Z,99914.50
2023-03-18T17:47:01.915Z,99918.63
2023-03-18T17:48:36.378Z,99920.44
2023-03-18T17:50:14.210Z,99923.53
2023-03-18T17:51:48.622Z,99933.16
2023-03-18T17:53:28.079Z,99922.31
2023-03-18T17:54:59.817Z,99924.88
2023-03-18T17:56:32.689Z,99922.59
2023-03-18T17:58:15.842Z,99921.00
2023-03-18T17:59:48.674Z,99915.03
2023-03-18T18:01:26.502Z,99919.94
2023-03-18T18:02:59.034Z,99917.06
2023-03-18T18:04:31.397Z,99920.03
2023-03-18T18:06:03.796Z,99924.69
2023-03-18T18:07:36.455Z,99927.78
2023-03-18T18:09:12.821Z,99925.59
2023-03-18T18:10:46.077Z,99923.91
2023-03-18T18:12:25.469Z,99912.56
2023-03-18T18:14:03.526Z,99913.31
2023-03-18T18:15:35.738Z,99920.66
2023-03-18T18:17:15.267Z,99924.13
2023-03-18T18:18:49.597Z,99923.88
2023-03-18T18:20:22.781Z,99913.63
2023-03-18T18:21:54.972Z,99916.72
2023-03-18T18:23:32.755Z,99911.84
2023-03-18T18:25:06.389Z,99916.97
2023-03-18T18:26:38.154Z,99911.69
2023-03-18T18:28:19.588Z,99907.91
2023-03-18T18:29:52.936Z,99908.78
2023-03-18T18:31:25.626Z,99903.63
2023-03-18T18:32:57.834Z,99910.38
2023-03-18T18:34:30.429Z,99902.44
2023-03-18T18:36:03.188Z,99913.47
2023-03-18T18:37:35.230Z,99912.88
2023-03-18T18:39:07.275Z,99913.97
2023-03-18T18:40:39.891Z,99916.66
2023-03-18T18:42:12.450Z,99915.91
2023-03-18T18:43:44.199Z,99917.16
2023-03-18T18:45:19.200Z,99921.78
2023-03-18T18:46:51.578Z,99911.19
2023-03-18T18:48:29.543Z,99918.41
2023-03-18T18:50:54.820Z,99917.19
2023-03-18T18:52:32.401Z,99916.44
2023-03-18T18:54:04.879Z,99921.84
2023-03-18T18:55:36.548Z,99922.94
2023-03-18T18:57:37.935Z,99923.66
2023-03-18T18:59:28.762Z,99920.97
2023-03-18T19:01:00.602Z,99914.41
2023-03-18T19:02:35.229Z,99917.59
2023-03-18T19:04:13.951Z,99919.53